Time;durP1;ratioP1;P1;durP2;ratioP2;P2;SDS_P1;SDS_P2;PMS_P1;PMS_P2;Temp;Humidity;BMP_temperature;BMP_pressure;BME280_temperature;BME280_humidity;BME280_pressure;Samples;Min_cycle;Max_cycle;Signal;HPM_P1;HPM_P2
2021/05/30 00:01:14;;;;;;;5.60;0.80;;;12.90;99.90;;;;;;5016917;28;20379;-88
2021/05/30 00:03:41;;;;;;;4.18;0.90;;;12.90;99.90;;;;;;5013822;28;20402;-91
2021/05/30 00:06:08;;;;;;;6.18;0.90;;;13.00;99.90;;;;;;5006880;28;20462;-92
2021/05/30 00:08:35;;;;;;;2.57;0.70;;;13.00;99.90;;;;;;5014225;28;20422;-93
2021/05/30 00:11:02;;;;;;;2.83;0.77;;;13.20;99.90;;;;;;5014867;28;20474;-91
2021/05/30 00:13:29;;;;;;;5.50;1.20;;;13.30;99.90;;;;;;4995573;28;20435;-91
2021/05/30 00:15:56;;;;;;;4.28;0.93;;;13.30;99.90;;;;;;4996748;28;20847;-88
2021/05/30 00:18:23;;;;;;;4.28;0.90;;;13.20;99.90;;;;;;5001391;28;20454;-90
2021/05/30 00:20:51;;;;;;;4.20;0.70;;;13.30;99.90;;;;;;5013257;28;20455;-86
2021/05/30 00:23:18;;;;;;;2.53;0.60;;;13.50;99.90;;;;;;5013735;28;20395;-88
2021/05/30 00:25:44;;;;;;;4.00;0.70;;;13.60;99.90;;;;;;5013901;28;20878;-93
2021/05/30 00:28:12;;;;;;;6.07;0.80;;;13.70;99.90;;;;;;5014595;28;20972;-92
2021/05/30 00:30:39;;;;;;;4.20;0.80;;;13.60;99.90;;;;;;5014651;28;20762;-92
2021/05/30 00:33:06;;;;;;;4.78;0.80;;;13.50;99.90;;;;;;5012726;28;20398;-86
2021/05/30 00:35:33;;;;;;;4.93;0.75;;;13.50;99.90;;;;;;5014590;28;20383;-89
2021/05/30 00:38:00;;;;;;;5.05;0.90;;;13.40;99.90;;;;;;5013736;28;20386;-90
2021/05/30 00:40:27;;;;;;;5.47;1.08;;;13.50;99.90;;;;;;5015667;28;20387;-91
2021/05/30 00:42:54;;;;;;;4.60;0.95;;;13.40;99.90;;;;;;5015360;28;20462;-89
2021/05/30 00:45:21;;;;;;;4.18;1.02;;;13.40;99.90;;;;;;5014444;28;20379;-90
2021/05/30 00:47:48;;;;;;;1.88;0.73;;;13.50;99.90;;;;;;5012637;28;20490;-89
2021/05/30 00:50:15;;;;;;;5.78;1.05;;;13.70;99.90;;;;;;5015075;28;20399;-90
2021/05/30 00:52:43;;;;;;;5.87;0.90;;;14.00;99.90;;;;;;5012527;28;20450;-88
2021/05/30 00:55:14;;;;;;;2.72;0.75;;;14.10;99.90;;;;;;5014744;28;20418;-91
2021/05/30 00:57:41;;;;;;;4.15;0.90;;;14.20;99.90;;;;;;5013984;28;20383;-91
2021/05/30 01:00:12;;;;;;;3.45;0.73;;;14.30;99.90;;;;;;5015179;28;21093;-91
2021/05/30 01:02:39;;;;;;;4.47;1.05;;;14.20;99.90;;;;;;5016273;28;20479;-90
2021/05/30 01:05:08;;;;;;;2.25;0.93;;;14.00;99.90;;;;;;5013957;28;20445;-89
2021/05/30 01:07:41;;;;;;;3.55;0.85;;;13.90;99.90;;;;;;5015307;28;20408;-86
2021/05/30 01:10:32;;;;;;;2.92;0.70;;;13.80;99.90;;;;;;5014186;28;20402;-89
2021/05/30 01:13:01;;;;;;;5.97;1.30;;;13.70;99.90;;;;;;5009125;28;20471;-85
2021/05/30 01:15:31;;;;;;;4.20;1.00;;;13.70;99.90;;;;;;5013745;28;20440;-88
2021/05/30 01:17:59;;;;;;;2.20;0.77;;;13.60;99.90;;;;;;5014700;28;20387;-92
2021/05/30 01:20:27;;;;;;;4.43;0.82;;;13.60;99.90;;;;;;5013123;28;20747;-88
2021/05/30 01:22:54;;;;;;;2.55;0.85;;;13.70;99.90;;;;;;5015833;28;20418;-84
2021/05/30 01:25:24;;;;;;;5.30;0.90;;;13.80;99.90;;;;;;5020518;28;20849;-88
2021/05/30 01:27:52;;;;;;;4.13;0.80;;;13.90;99.90;;;;;;5010368;28;20404;-89
2021/05/30 01:30:21;;;;;;;5.10;0.80;;;14.00;99.90;;;;;;4997556;28;20479;-90
2021/05/30 01:32:49;;;;;;;4.68;0.73;;;14.00;99.90;;;;;;5022830;28;20397;-89
2021/05/30 01:35:17;;;;;;;5.45;1.15;;;14.00;99.90;;;;;;5016562;28;20391;-88
2021/05/30 01:37:44;;;;;;;5.75;0.90;;;14.10;99.90;;;;;;5032969;28;20354;-90
2021/05/30 01:40:12;;;;;;;5.28;1.08;;;14.20;99.90;;;;;;5033678;28;20404;-87
2021/05/30 01:42:39;;;;;;;3.90;0.70;;;14.30;99.90;;;;;;5016018;28;20436;-88
2021/05/30 01:45:08;;;;;;;2.75;0.90;;;14.40;99.90;;;;;;5015861;28;20399;-87
2021/05/30 01:47:40;;;;;;;2.87;0.77;;;14.20;99.90;;;;;;5020900;28;20473;-88
2021/05/30 01:50:09;;;;;;;3.00;0.68;;;14.10;99.90;;;;;;5012974;28;20438;-86
2021/05/30 01:52:37;;;;;;;5.07;0.67;;;14.10;99.90;;;;;;5028339;28;20385;-88
2021/05/30 01:55:06;;;;;;;4.60;1.00;;;14.20;99.90;;;;;;5022502;28;20402;-87
2021/05/30 01:57:45;;;;;;;4.07;0.80;;;14.30;99.90;;;;;;5015165;28;20382;-88
2021/05/30 02:00:12;;;;;;;4.63;0.90;;;14.40;99.90;;;;;;5008072;28;20430;-92
2021/05/30 02:02:40;;;;;;;4.03;0.60;;;14.50;99.90;;;;;;5012413;28;20463;-89
2021/05/30 02:05:07;;;;;;;3.42;1.08;;;14.40;99.90;;;;;;5014872;28;20514;-89
2021/05/30 02:07:36;;;;;;;4.28;0.60;;;14.30;99.90;;;;;;5011674;28;20437;-87
2021/05/30 02:10:04;;;;;;;4.00;1.02;;;14.10;99.90;;;;;;5010983;28;20483;-87
2021/05/30 02:12:32;;;;;;;3.30;0.90;;;14.10;99.90;;;;;;5015488;28;20397;-85
2021/05/30 02:15:00;;;;;;;3.95;0.63;;;14.20;99.90;;;;;;5012401;28;20399;-87
2021/05/30 02:17:27;;;;;;;10.02;1.08;;;14.20;99.90;;;;;;5015501;28;20412;-89
2021/05/30 02:19:56;;;;;;;4.40;0.80;;;14.30;99.90;;;;;;5025135;28;20437;-91
2021/05/30 02:22:23;;;;;;;3.63;0.82;;;14.50;99.90;;;;;;5013058;28;20410;-93
2021/05/30 02:24:50;;;;;;;3.10;0.90;;;14.60;99.90;;;;;;5008878;28;20843;-88
2021/05/30 02:27:18;;;;;;;3.13;0.90;;;14.80;99.90;;;;;;5019321;28;20817;-94
2021/05/30 02:29:45;;;;;;;4.22;0.90;;;14.80;99.90;;;;;;5027842;28;20909;-93
2021/05/30 02:32:14;;;;;;;3.40;0.88;;;14.90;99.90;;;;;;5014716;28;20402;-95
2021/05/30 02:34:43;;;;;;;4.80;0.80;;;15.10;99.90;;;;;;5034500;28;20398;-96
2021/05/30 02:37:15;;;;;;;2.97;1.05;;;15.10;99.90;;;;;;5028943;28;20397;-87
2021/05/30 02:39:43;;;;;;;2.60;0.80;;;15.00;99.90;;;;;;5008547;28;20932;-90
2021/05/30 02:42:10;;;;;;;3.25;0.75;;;14.90;99.90;;;;;;5020643;28;20418;-90
2021/05/30 02:44:39;;;;;;;5.65;1.10;;;14.80;99.90;;;;;;5018606;28;20399;-93
2021/05/30 02:47:06;;;;;;;4.83;0.90;;;14.60;99.90;;;;;;5024841;28;20473;-93
2021/05/30 02:49:34;;;;;;;3.30;0.90;;;14.60;99.90;;;;;;5027338;28;20394;-94
2021/05/30 02:52:02;;;;;;;4.70;0.70;;;14.50;99.90;;;;;;5028883;28;20759;-91
2021/05/30 02:54:34;;;;;;;2.80;0.80;;;14.50;99.90;;;;;;5032458;28;20410;-93
2021/05/30 02:57:01;;;;;;;5.33;1.10;;;14.50;99.90;;;;;;5014120;28;20377;-92
2021/05/30 02:59:28;;;;;;;4.90;0.85;;;14.50;99.90;;;;;;5021271;28;20416;-91
2021/05/30 03:01:55;;;;;;;5.13;0.90;;;14.40;99.90;;;;;;5015536;28;20909;-89
2021/05/30 03:04:24;;;;;;;4.50;1.20;;;14.30;99.90;;;;;;5017039;28;20912;-85
2021/05/30 03:06:51;;;;;;;4.28;0.73;;;14.10;99.90;;;;;;5013314;28;20384;-87
2021/05/30 03:09:18;;;;;;;4.80;0.80;;;14.00;99.90;;;;;;5014352;28;21004;-92
2021/05/30 03:11:45;;;;;;;2.53;0.65;;;14.00;99.90;;;;;;5016222;28;20470;-93
2021/05/30 03:14:12;;;;;;;2.40;0.70;;;13.90;99.90;;;;;;5015850;28;20453;-89
2021/05/30 03:16:39;;;;;;;3.33;1.00;;;13.90;99.90;;;;;;5015179;28;20446;-91
2021/05/30 03:19:06;;;;;;;6.15;1.20;;;14.00;99.90;;;;;;5018017;28;20490;-94
2021/05/30 03:21:34;;;;;;;3.38;1.02;;;14.00;99.90;;;;;;5017461;28;20414;-92
2021/05/30 03:24:03;;;;;;;2.47;0.95;;;14.10;99.90;;;;;;5018938;28;20414;-93
2021/05/30 03:26:30;;;;;;;4.28;1.05;;;14.10;99.90;;;;;;5017320;28;20441;-92
2021/05/30 03:28:57;;;;;;;4.93;1.20;;;14.20;99.90;;;;;;5018511;28;20406;-88
2021/05/30 03:31:24;;;;;;;2.93;0.90;;;14.10;99.90;;;;;;5019392;28;20476;-95
2021/05/30 03:33:51;;;;;;;4.15;1.15;;;14.00;99.90;;;;;;5021201;28;22019;-96
2021/05/30 03:36:22;;;;;;;3.63;0.80;;;14.00;99.90;;;;;;5018930;28;20406;-92
2021/05/30 03:38:49;;;;;;;6.60;0.95;;;14.00;99.90;;;;;;5023753;28;20379;-95
2021/05/30 03:41:19;;;;;;;5.45;1.10;;;14.00;99.90;;;;;;5020603;28;20776;-89
2021/05/30 03:43:46;;;;;;;5.68;0.82;;;14.00;99.90;;;;;;5027614;28;20385;-92
2021/05/30 03:46:13;;;;;;;4.72;0.98;;;14.10;99.90;;;;;;5019420;28;20382;-94
2021/05/30 03:48:40;;;;;;;4.65;1.05;;;14.20;99.90;;;;;;5018683;28;20411;-93
2021/05/30 03:51:07;;;;;;;2.85;0.80;;;14.30;99.90;;;;;;5021841;28;20848;-93
2021/05/30 03:53:34;;;;;;;3.40;0.85;;;14.30;99.90;;;;;;5019430;28;20433;-94
2021/05/30 03:56:02;;;;;;;3.20;0.90;;;14.20;99.90;;;;;;5019059;28;20382;-94
2021/05/30 03:58:31;;;;;;;4.40;0.90;;;14.10;99.90;;;;;;5017887;28;20387;-92
2021/05/30 04:00:58;;;;;;;3.55;0.88;;;13.90;99.90;;;;;;5018721;28;20380;-93
2021/05/30 04:03:24;;;;;;;5.32;1.08;;;13.90;99.90;;;;;;5019567;28;20379;-93
2021/05/30 04:05:51;;;;;;;5.38;0.98;;;13.90;99.90;;;;;;5019253;28;20372;-90
2021/05/30 04:08:20;;;;;;;2.25;0.77;;;13.90;99.90;;;;;;5019490;28;20410;-92
2021/05/30 04:10:47;;;;;;;3.20;0.88;;;14.00;99.90;;;;;;5035634;28;20398;-95
2021/05/30 04:13:18;;;;;;;5.30;0.90;;;13.90;99.90;;;;;;4997632;28;20501;-92
2021/05/30 04:29:04;;;;;;;4.10;0.73;;;14.10;99.90;;;;;;4992600;27;4859309;-96
2021/05/30 04:31:31;;;;;;;3.85;0.70;;;14.20;99.90;;;;;;5130803;27;20479;-89
2021/05/30 04:33:58;;;;;;;3.65;0.80;;;14.10;99.90;;;;;;5151851;27;20380;-94
2021/05/30 04:36:25;;;;;;;2.83;0.93;;;14.10;99.90;;;;;;5150931;27;20384;-92
2021/05/30 04:38:52;;;;;;;2.22;0.88;;;14.10;99.90;;;;;;5148342;27;20381;-89
2021/05/30 04:41:19;;;;;;;3.03;0.60;;;14.20;99.90;;;;;;5152053;27;20399;-91
2021/05/30 04:43:46;;;;;;;4.90;0.82;;;14.20;99.90;;;;;;5148870;27;20384;-94
2021/05/30 04:46:13;;;;;;;4.93;1.10;;;14.20;99.90;;;;;;5144459;27;20767;-89
2021/05/30 04:48:40;;;;;;;3.27;0.90;;;14.20;99.90;;;;;;5114768;27;20894;-91
2021/05/30 04:51:16;;;;;;;2.50;1.10;;;14.20;99.90;;;;;;5156358;27;20380;-90
2021/05/30 04:53:45;;;;;;;3.53;1.02;;;14.20;99.90;;;;;;5131537;28;20470;-88
2021/05/30 04:56:19;;;;;;;3.47;0.77;;;14.10;99.90;;;;;;5131507;28;20377;-92
2021/05/30 04:58:46;;;;;;;3.58;0.80;;;13.90;99.90;;;;;;5135842;27;20380;-92
2021/05/30 05:01:13;;;;;;;2.30;0.93;;;13.80;99.90;;;;;;5152089;27;20379;-91
2021/05/30 05:03:40;;;;;;;2.67;0.90;;;13.70;99.90;;;;;;5131604;27;20442;-90
2021/05/30 05:06:07;;;;;;;6.97;1.02;;;13.60;99.90;;;;;;5112470;28;20783;-91
2021/05/30 05:08:34;;;;;;;4.35;1.17;;;13.50;99.90;;;;;;5112405;27;20406;-92
2021/05/30 05:11:01;;;;;;;4.95;1.10;;;13.40;99.90;;;;;;5152342;27;20410;-90
2021/05/30 05:13:28;;;;;;;3.38;0.60;;;13.40;99.90;;;;;;5133154;27;20810;-92
2021/05/30 05:15:55;;;;;;;2.55;0.95;;;13.40;99.90;;;;;;5133657;27;20372;-90
2021/05/30 05:18:24;;;;;;;4.22;0.80;;;13.50;99.90;;;;;;5151619;27;20500;-89
2021/05/30 05:20:52;;;;;;;5.60;0.90;;;13.60;99.90;;;;;;5131719;27;20384;-90
2021/05/30 05:23:24;;;;;;;5.07;0.93;;;13.60;99.90;;;;;;5152263;27;20364;-86
2021/05/30 05:25:52;;;;;;;3.22;1.00;;;13.60;99.90;;;;;;5151594;27;20421;-91
2021/05/30 05:28:20;;;;;;;4.70;1.00;;;13.60;99.90;;;;;;5144027;27;20408;-92
2021/05/30 05:30:50;;;;;;;4.82;1.10;;;13.50;99.90;;;;;;5131583;27;20373;-92
2021/05/30 05:33:17;;;;;;;5.38;0.85;;;13.50;99.90;;;;;;5115491;28;20382;-91
2021/05/30 05:35:44;;;;;;;8.10;0.98;;;13.50;99.90;;;;;;5112512;28;20374;-90
2021/05/30 05:38:11;;;;;;;2.58;1.00;;;13.40;99.90;;;;;;5130451;28;20449;-93
2021/05/30 05:40:38;;;;;;;3.80;1.02;;;13.40;99.90;;;;;;5115508;28;20397;-90
2021/05/30 05:43:07;;;;;;;6.47;1.10;;;13.40;99.90;;;;;;5110900;27;20382;-92
2021/05/30 05:45:34;;;;;;;2.67;1.10;;;13.40;99.90;;;;;;5137353;27;20368;-90
2021/05/30 05:48:02;;;;;;;2.53;0.65;;;13.40;99.90;;;;;;5136971;27;20397;-91
2021/05/30 05:50:30;;;;;;;3.28;0.95;;;13.30;99.90;;;;;;5137160;27;20779;-91
2021/05/30 05:52:57;;;;;;;4.38;0.60;;;13.20;99.90;;;;;;5117997;27;20377;-90
2021/05/30 05:55:24;;;;;;;3.83;0.80;;;13.10;99.90;;;;;;5118086;27;20879;-91
2021/05/30 05:57:52;;;;;;;2.92;0.80;;;13.10;99.90;;;;;;5136596;27;20365;-92
2021/05/30 06:00:22;;;;;;;5.93;1.10;;;13.10;99.90;;;;;;5118839;27;20369;-95
2021/05/30 06:02:50;;;;;;;4.32;0.80;;;13.10;99.90;;;;;;5125761;27;20416;-92
2021/05/30 06:05:22;;;;;;;3.83;1.00;;;13.10;99.90;;;;;;5117195;28;20405;-89
2021/05/30 06:07:52;;;;;;;6.82;1.17;;;13.00;99.90;;;;;;5116967;28;20391;-90
2021/05/30 06:10:24;;;;;;;4.00;1.10;;;13.00;99.90;;;;;;5118129;28;20377;-90
2021/05/30 06:12:58;;;;;;;2.80;0.90;;;13.00;99.90;;;;;;5119218;27;20418;-90
2021/05/30 06:15:26;;;;;;;4.05;0.88;;;13.10;99.90;;;;;;5128160;28;20375;-92
2021/05/30 06:18:00;;;;;;;3.80;1.08;;;13.00;99.90;;;;;;5130979;28;20386;-91
2021/05/30 06:20:27;;;;;;;4.22;1.17;;;13.00;99.90;;;;;;5137536;28;20363;-89
2021/05/30 06:22:55;;;;;;;4.53;1.23;;;12.90;99.90;;;;;;5146719;27;20381;-87
2021/05/30 06:25:25;;;;;;;4.90;1.08;;;12.90;99.90;;;;;;5139816;27;20385;-90
2021/05/30 06:27:55;;;;;;;4.47;1.08;;;12.90;99.90;;;;;;5136972;27;20860;-89
2021/05/30 06:30:27;;;;;;;6.47;1.25;;;12.90;99.90;;;;;;5098926;28;20475;-92
2021/05/30 06:32:56;;;;;;;6.43;1.35;;;12.90;99.90;;;;;;5124475;27;20361;-92
2021/05/30 06:35:23;;;;;;;3.35;1.23;;;13.00;99.90;;;;;;5115700;27;20381;-91
2021/05/30 06:37:50;;;;;;;4.25;1.23;;;13.00;99.90;;;;;;5117528;27;20372;-90
2021/05/30 06:40:17;;;;;;;5.72;1.48;;;13.00;99.90;;;;;;5119133;27;20409;-92
2021/05/30 06:42:44;;;;;;;3.45;1.20;;;12.90;99.90;;;;;;5136457;27;20376;-91
2021/05/30 06:45:12;;;;;;;3.90;1.40;;;12.80;99.90;;;;;;5135951;27;20414;-91
2021/05/30 06:47:39;;;;;;;17.35;11.82;;;12.80;99.90;;;;;;5102236;28;20460;-91
2021/05/30 06:50:06;;;;;;;23.63;16.48;;;12.80;99.90;;;;;;5115894;28;20861;-91
2021/05/30 06:52:33;;;;;;;9.70;4.50;;;12.80;99.90;;;;;;5097411;28;20813;-91
2021/05/30 06:55:00;;;;;;;10.50;5.95;;;12.80;99.90;;;;;;5116199;27;20377;-92
2021/05/30 06:57:27;;;;;;;16.30;10.45;;;12.80;99.90;;;;;;5116504;28;20397;-91
2021/05/30 06:59:54;;;;;;;15.57;10.80;;;12.80;99.90;;;;;;5135001;27;20384;-92
2021/05/30 07:02:21;;;;;;;15.32;9.40;;;12.80;99.90;;;;;;5136771;27;20361;-92
2021/05/30 07:04:48;;;;;;;12.82;8.38;;;12.80;99.90;;;;;;5138849;27;20373;-91
2021/05/30 07:07:15;;;;;;;10.00;5.75;;;12.80;99.90;;;;;;5138836;27;20385;-92
2021/05/30 07:09:43;;;;;;;8.65;4.85;;;12.80;99.90;;;;;;5135565;27;20397;-91
2021/05/30 07:12:10;;;;;;;10.70;4.93;;;12.80;99.90;;;;;;5117202;27;20361;-91
2021/05/30 07:14:37;;;;;;;7.10;3.60;;;12.80;99.90;;;;;;5136227;27;20377;-92
2021/05/30 07:17:05;;;;;;;9.55;3.42;;;12.80;99.90;;;;;;5135758;27;20372;-92
2021/05/30 07:19:32;;;;;;;5.70;3.00;;;12.80;99.90;;;;;;5135906;27;20350;-92
2021/05/30 07:21:59;;;;;;;7.45;4.22;;;12.70;99.90;;;;;;5134038;27;20369;-88
2021/05/30 07:24:26;;;;;;;6.15;3.03;;;12.60;99.90;;;;;;5136003;27;20369;-91
2021/05/30 07:26:53;;;;;;;6.93;3.08;;;12.60;99.90;;;;;;5136333;27;20389;-91
2021/05/30 07:29:20;;;;;;;6.82;2.60;;;12.60;99.90;;;;;;5128585;27;20438;-91
2021/05/30 07:31:48;;;;;;;7.35;3.20;;;12.60;99.90;;;;;;5097264;28;20470;-92
2021/05/30 07:34:15;;;;;;;8.25;4.55;;;12.60;99.90;;;;;;5097593;28;20386;-92
2021/05/30 07:36:43;;;;;;;9.38;4.55;;;12.60;99.90;;;;;;5114943;28;20371;-90
2021/05/30 07:39:10;;;;;;;9.35;4.38;;;12.60;99.90;;;;;;5103429;27;20381;-92
2021/05/30 07:41:37;;;;;;;9.63;4.47;;;12.60;99.90;;;;;;5136479;27;20380;-92
2021/05/30 07:44:05;;;;;;;9.40;4.05;;;12.70;99.90;;;;;;5118289;27;20407;-91
2021/05/30 07:46:32;;;;;;;9.13;3.97;;;12.60;99.90;;;;;;5135750;27;20437;-90
2021/05/30 07:48:59;;;;;;;8.15;3.35;;;12.60;99.90;;;;;;5136370;27;20422;-91
2021/05/30 07:51:26;;;;;;;8.20;3.10;;;12.70;99.90;;;;;;5116525;27;20380;-92
2021/05/30 07:53:53;;;;;;;10.23;3.90;;;12.60;99.90;;;;;;5134552;27;20426;-89
2021/05/30 07:56:20;;;;;;;7.45;3.38;;;12.60;99.90;;;;;;5096861;28;20367;-92
2021/05/30 07:58:47;;;;;;;6.60;3.40;;;12.60;99.90;;;;;;5097125;28;20382;-91
2021/05/30 08:01:14;;;;;;;7.28;3.10;;;12.60;99.90;;;;;;5118563;27;20426;-87
2021/05/30 08:03:42;;;;;;;6.20;3.53;;;12.60;99.90;;;;;;5136078;27;20377;-92
2021/05/30 08:06:09;;;;;;;6.47;3.55;;;12.50;99.90;;;;;;5135418;27;20370;-92
2021/05/30 08:08:36;;;;;;;9.15;3.20;;;12.50;99.90;;;;;;5117356;27;20402;-92
2021/05/30 08:11:03;;;;;;;7.38;3.20;;;12.50;99.90;;;;;;5136014;27;20748;-88
2021/05/30 08:13:30;;;;;;;6.63;3.00;;;12.50;99.90;;;;;;5115962;27;20396;-91
2021/05/30 08:15:57;;;;;;;7.22;3.28;;;12.50;99.90;;;;;;5134361;27;20387;-91
2021/05/30 08:18:24;;;;;;;5.93;3.13;;;12.50;99.90;;;;;;5133210;27;20377;-90
2021/05/30 08:20:51;;;;;;;7.55;3.30;;;12.50;99.90;;;;;;5121570;27;20370;-92
2021/05/30 08:23:18;;;;;;;7.55;2.80;;;12.50;99.90;;;;;;5116120;28;20422;-90
2021/05/30 08:25:45;;;;;;;5.22;2.40;;;12.50;99.90;;;;;;5106864;28;20459;-91
2021/05/30 08:28:12;;;;;;;4.95;2.30;;;12.40;99.90;;;;;;5117937;28;20405;-92
2021/05/30 08:30:40;;;;;;;4.97;2.50;;;12.40;99.90;;;;;;5132740;28;20390;-91
2021/05/30 08:33:07;;;;;;;6.85;2.42;;;12.40;99.90;;;;;;5129527;28;20406;-91
2021/05/30 08:35:34;;;;;;;3.95;2.20;;;12.40;99.90;;;;;;5140153;28;20385;-93
2021/05/30 08:38:01;;;;;;;6.53;2.28;;;12.30;99.90;;;;;;5141516;28;20377;-89
2021/05/30 08:40:29;;;;;;;6.25;2.35;;;12.30;99.90;;;;;;5141061;28;20376;-88
2021/05/30 08:42:56;;;;;;;5.65;2.30;;;12.30;99.90;;;;;;5139486;28;20436;-89
2021/05/30 08:45:24;;;;;;;6.80;2.67;;;12.30;99.90;;;;;;5138029;28;20525;-89
2021/05/30 08:47:51;;;;;;;5.63;2.58;;;12.30;99.90;;;;;;5139304;28;20408;-91
2021/05/30 08:50:18;;;;;;;7.20;2.73;;;12.30;99.90;;;;;;5141592;28;20377;-90
2021/05/30 08:52:45;;;;;;;5.82;2.88;;;12.30;99.90;;;;;;5138204;28;20413;-91
2021/05/30 08:55:12;;;;;;;6.55;3.00;;;12.20;99.90;;;;;;5115298;28;20472;-91
2021/05/30 08:57:40;;;;;;;4.90;2.70;;;12.20;99.90;;;;;;5129860;28;20451;-91
2021/05/30 09:00:10;;;;;;;6.00;2.72;;;12.20;99.90;;;;;;5115703;28;20402;-91
2021/05/30 09:02:38;;;;;;;4.75;2.95;;;12.20;99.90;;;;;;5112941;28;20421;-91
2021/05/30 09:05:08;;;;;;;6.25;2.95;;;12.10;99.90;;;;;;5115667;28;20381;-91
2021/05/30 09:07:47;;;;;;;8.85;3.05;;;12.10;99.90;;;;;;5134164;28;20407;-90
2021/05/30 09:10:18;;;;;;;6.53;3.05;;;12.00;99.90;;;;;;5134032;28;20384;-87
2021/05/30 09:12:45;;;;;;;9.80;3.38;;;12.00;99.90;;;;;;5128862;28;20365;-93
2021/05/30 09:18:35;;;;;;;7.57;3.90;;;11.90;99.90;;;;;;5082613;28;20425;-90
2021/05/30 09:21:05;;;;;;;9.07;4.55;;;11.90;99.90;;;;;;5106850;27;20855;-89
2021/05/30 09:23:33;;;;;;;10.13;4.13;;;11.90;99.90;;;;;;5138228;27;20464;-88
2021/05/30 09:26:26;;;;;;;8.48;4.38;;;11.90;99.90;;;;;;5139242;27;20416;-91
2021/05/30 09:29:11;;;;;;;13.17;5.17;;;11.90;99.90;;;;;;5126088;27;20413;-88
2021/05/30 09:31:57;;;;;;;10.50;5.00;;;11.90;99.90;;;;;;5122463;28;20370;-85
2021/05/30 09:34:31;;;;;;;10.15;5.57;;;12.00;99.90;;;;;;5146451;27;20401;-92
2021/05/30 09:36:59;;;;;;;13.35;5.28;;;12.00;99.90;;;;;;5152336;27;20404;-90
2021/05/30 09:39:45;;;;;;;9.75;4.55;;;12.00;99.90;;;;;;5122663;27;20458;-92
2021/05/30 09:42:37;;;;;;;11.02;4.13;;;12.00;99.90;;;;;;5114054;27;20366;-91
2021/05/30 09:45:10;;;;;;;10.70;4.80;;;12.00;99.90;;;;;;5139490;27;20426;-91
2021/05/30 09:47:41;;;;;;;12.23;4.13;;;12.00;99.90;;;;;;5111786;27;20389;-91
2021/05/30 09:50:10;;;;;;;10.90;4.85;;;12.00;99.90;;;;;;5133560;27;20542;-92
2021/05/30 09:52:48;;;;;;;9.50;5.07;;;12.00;99.90;;;;;;5131431;27;20467;-91
2021/05/30 09:55:23;;;;;;;11.87;4.83;;;12.00;99.90;;;;;;5131116;27;20512;-90
2021/05/30 09:58:15;;;;;;;10.55;4.18;;;12.00;99.90;;;;;;5115052;27;20403;-91
2021/05/30 10:00:44;;;;;;;8.85;4.20;;;12.00;99.90;;;;;;5100141;27;20395;-91
2021/05/30 10:03:11;;;;;;;8.77;4.13;;;12.00;99.90;;;;;;5124335;27;20854;-91
2021/05/30 10:05:38;;;;;;;8.38;3.95;;;12.00;99.90;;;;;;5126676;27;20859;-91
2021/05/30 10:08:06;;;;;;;10.18;3.85;;;12.10;99.90;;;;;;5131372;27;20399;-91
2021/05/30 10:10:33;;;;;;;8.13;3.87;;;12.00;99.90;;;;;;5136234;27;20506;-92
2021/05/30 10:13:02;;;;;;;10.52;4.22;;;12.10;99.90;;;;;;5130106;27;20902;-91
2021/05/30 10:15:29;;;;;;;9.02;4.15;;;12.10;99.90;;;;;;5102234;28;20375;-91
2021/05/30 10:18:02;;;;;;;10.98;4.75;;;12.00;99.90;;;;;;5100985;27;20384;-91
2021/05/30 10:20:29;;;;;;;10.82;4.65;;;12.00;99.90;;;;;;5135708;27;20373;-90
2021/05/30 10:22:59;;;;;;;8.50;4.28;;;12.10;99.90;;;;;;5116685;27;20403;-91
2021/05/30 10:25:33;;;;;;;7.90;3.80;;;12.10;99.90;;;;;;5135761;27;20373;-91
2021/05/30 10:28:18;;;;;;;7.95;4.15;;;12.10;99.90;;;;;;5137129;27;20887;-91
2021/05/30 10:30:50;;;;;;;7.50;4.15;;;12.00;99.90;;;;;;5137106;27;20859;-91
2021/05/30 10:33:19;;;;;;;9.32;4.07;;;12.00;99.90;;;;;;5118582;27;20388;-90
2021/05/30 10:35:48;;;;;;;9.63;4.57;;;12.00;99.90;;;;;;5137294;27;20371;-89
2021/05/30 10:38:45;;;;;;;7.05;4.18;;;12.00;99.90;;;;;;5136865;27;20388;-93
2021/05/30 10:41:18;;;;;;;8.37;4.53;;;12.10;99.90;;;;;;5127803;27;20392;-92
2021/05/30 10:43:46;;;;;;;8.30;4.63;;;12.00;99.90;;;;;;5136872;27;20404;-85
2021/05/30 10:46:14;;;;;;;8.80;4.32;;;12.00;99.90;;;;;;5136835;27;20368;-90
2021/05/30 10:48:46;;;;;;;7.28;4.18;;;12.00;99.90;;;;;;5136746;27;20417;-88
2021/05/30 10:51:33;;;;;;;6.22;4.22;;;12.00;99.90;;;;;;5115518;27;20392;-88
2021/05/30 10:54:13;;;;;;;6.80;3.50;;;12.00;99.90;;;;;;5134366;27;21257;-92
2021/05/30 10:57:00;;;;;;;9.05;4.40;;;12.00;99.90;;;;;;5119411;27;20389;-92
2021/05/30 10:59:28;;;;;;;7.40;4.00;;;12.00;99.90;;;;;;5136088;27;20867;-88
2021/05/30 11:01:56;;;;;;;7.63;4.00;;;12.00;99.90;;;;;;5118226;27;20549;-91
2021/05/30 11:04:27;;;;;;;5.95;3.53;;;12.00;99.90;;;;;;5131739;27;20385;-94
2021/05/30 11:06:58;;;;;;;7.43;3.90;;;12.00;99.90;;;;;;5123076;27;20436;-93
2021/05/30 11:12:27;;;;;;;7.88;3.97;;;11.90;99.90;;;;;;5133756;27;20468;-91
2021/05/30 11:15:14;;;;;;;5.05;3.47;;;12.00;99.90;;;;;;5121675;27;20438;-91
2021/05/30 11:17:55;;;;;;;6.93;3.40;;;11.90;99.90;;;;;;5136694;27;20369;-92
2021/05/30 11:20:43;;;;;;;7.60;3.53;;;11.90;99.90;;;;;;5136948;27;20387;-92
2021/05/30 11:23:16;;;;;;;6.05;3.50;;;11.90;99.90;;;;;;5134038;27;20393;-94
2021/05/30 11:25:53;;;;;;;11.98;7.50;;;11.80;99.90;;;;;;5110632;27;20504;-92
2021/05/30 11:28:23;;;;;;;11.50;7.63;;;11.80;99.90;;;;;;5116099;28;20451;-92
2021/05/30 11:31:06;;;;;;;11.07;7.43;;;11.80;99.90;;;;;;5116954;28;20419;-92
2021/05/30 11:33:40;;;;;;;10.10;6.50;;;11.70;99.90;;;;;;5123545;27;20401;-93
2021/05/30 11:36:12;;;;;;;9.38;5.63;;;11.60;99.90;;;;;;5136641;27;20385;-91
2021/05/30 11:38:48;;;;;;;9.07;5.72;;;11.50;99.90;;;;;;5128528;27;20377;-93
2021/05/30 11:41:39;;;;;;;7.70;5.40;;;11.40;99.90;;;;;;5118363;27;20386;-92
2021/05/30 11:44:11;;;;;;;9.43;6.50;;;11.20;99.90;;;;;;5096533;28;20387;-91
2021/05/30 11:46:47;;;;;;;8.77;6.22;;;11.10;99.90;;;;;;5115756;28;20389;-93
2021/05/30 11:49:16;;;;;;;7.82;5.72;;;11.00;99.90;;;;;;5124789;27;20405;-93
2021/05/30 11:52:06;;;;;;;5.53;4.18;;;10.90;99.90;;;;;;5117647;27;20384;-91
2021/05/30 11:54:45;;;;;;;6.28;3.70;;;10.80;99.90;;;;;;5135323;27;20361;-92
2021/05/30 11:57:20;;;;;;;5.45;3.40;;;10.80;99.90;;;;;;5134368;27;20404;-93
2021/05/30 12:00:00;;;;;;;5.22;3.50;;;10.70;99.90;;;;;;5135456;27;20433;-89
2021/05/30 12:02:38;;;;;;;6.15;3.92;;;10.60;99.90;;;;;;5103410;27;20421;-92
2021/05/30 12:05:08;;;;;;;12.07;6.88;;;10.60;99.90;;;;;;5134766;27;20361;-92
2021/05/30 12:07:35;;;;;;;12.88;6.90;;;10.50;99.90;;;;;;5134078;27;20404;-91
2021/05/30 12:10:05;;;;;;;11.17;6.00;;;10.50;99.90;;;;;;5114325;28;20467;-92
2021/05/30 12:12:35;;;;;;;11.25;6.38;;;10.40;99.90;;;;;;5114133;28;21019;-93
2021/05/30 12:15:31;;;;;;;10.20;5.78;;;10.40;99.90;;;;;;5131861;27;20467;-93
2021/05/30 12:17:59;;;;;;;11.90;5.73;;;10.30;99.90;;;;;;5102750;28;20470;-93
2021/05/30 12:20:34;;;;;;;8.90;5.32;;;10.20;99.90;;;;;;5106110;28;20423;-92
2021/05/30 12:23:23;;;;;;;9.17;5.17;;;10.10;99.90;;;;;;5134493;27;21467;-92
2021/05/30 12:26:03;;;;;;;9.20;5.35;;;10.10;99.90;;;;;;5121465;28;20915;-92
2021/05/30 12:28:34;;;;;;;8.60;5.50;;;10.00;99.90;;;;;;5133799;28;20401;-92
2021/05/30 12:31:12;;;;;;;8.20;5.10;;;10.00;99.90;;;;;;5134479;28;20361;-93
2021/05/30 12:33:59;;;;;;;7.43;5.15;;;9.90;99.90;;;;;;5134923;28;20384;-92
2021/05/30 12:36:37;;;;;;;6.65;4.40;;;9.80;99.90;;;;;;5115765;28;20393;-93
2021/05/30 12:39:15;;;;;;;5.18;3.97;;;9.80;99.90;;;;;;5134834;28;20867;-93
2021/05/30 12:41:57;;;;;;;8.27;4.13;;;9.70;99.90;;;;;;5119337;28;20438;-92
2021/05/30 12:44:34;;;;;;;6.20;3.57;;;9.70;99.90;;;;;;5106489;28;20922;-92
2021/05/30 12:47:07;;;;;;;7.40;3.50;;;9.60;99.90;;;;;;5132890;27;20377;-92
2021/05/30 12:49:35;;;;;;;5.13;3.07;;;9.70;99.90;;;;;;5138407;27;20397;-91
2021/05/30 12:52:18;;;;;;;5.80;3.30;;;9.60;99.90;;;;;;5147018;27;20382;-93
2021/05/30 12:54:59;;;;;;;4.45;3.10;;;9.60;99.90;;;;;;5149445;27;20360;-90
2021/05/30 12:57:47;;;;;;;5.15;3.38;;;9.60;99.90;;;;;;5148899;27;20448;-90
2021/05/30 13:00:28;;;;;;;4.32;3.10;;;9.60;99.90;;;;;;5149483;27;20393;-93
2021/05/30 13:03:09;;;;;;;5.47;3.23;;;9.60;99.90;;;;;;5144034;27;20388;-93
2021/05/30 13:05:42;;;;;;;5.80;3.23;;;9.60;99.90;;;;;;5122103;27;20381;-92
2021/05/30 13:08:24;;;;;;;5.75;3.38;;;9.50;99.90;;;;;;5139015;27;20393;-94
2021/05/30 13:11:08;;;;;;;4.38;3.03;;;9.50;99.90;;;;;;5103139;28;20853;-91
2021/05/30 13:13:43;;;;;;;3.72;2.90;;;9.40;99.90;;;;;;5119025;28;20357;-93
2021/05/30 13:16:11;;;;;;;4.32;3.13;;;9.40;99.90;;;;;;5135777;27;20397;-92
2021/05/30 13:18:56;;;;;;;6.22;3.38;;;9.40;99.90;;;;;;5119317;27;20376;-92
2021/05/30 13:21:30;;;;;;;7.95;3.42;;;9.30;99.90;;;;;;5135506;27;20400;-94